Time;durP1;ratioP1;P1;durP2;ratioP2;P2;SDS_P1;SDS_P2;PMS_P1;PMS_P2;Temp;Humidity;BMP_temperature;BMP_pressure;BME280_temperature;BME280_humidity;BME280_pressure;Samples;Min_cycle;Max_cycle;Signal;HPM_P1;HPM_P2
2021/08/04 00:01:35;;;;;;;2.45;0.88;;;;;;;;;;5131394;27;20030;-77
2021/08/04 00:04:00;;;;;;;2.50;0.90;;;;;;;;;;5132005;27;20460;-77
2021/08/04 00:06:26;;;;;;;0.60;0.60;;;;;;;;;;5130459;27;20019;-77
2021/08/04 00:08:51;;;;;;;3.17;0.80;;;;;;;;;;5131135;27;20030;-77
2021/08/04 00:11:17;;;;;;;1.77;0.80;;;;;;;;;;5132152;27;20378;-77
2021/08/04 00:13:42;;;;;;;1.55;0.90;;;;;;;;;;5130363;27;20030;-77
2021/08/04 00:16:08;;;;;;;0.75;0.70;;;;;;;;;;5113297;27;20042;-77
2021/08/04 00:18:33;;;;;;;3.33;1.00;;;;;;;;;;5131513;27;20019;-77
2021/08/04 00:20:59;;;;;;;3.42;0.90;;;;;;;;;;5112864;27;20020;-78
2021/08/04 00:23:24;;;;;;;1.42;0.85;;;;;;;;;;5123640;27;20531;-77
2021/08/04 00:25:50;;;;;;;1.75;0.98;;;;;;;;;;5112479;28;20016;-77
2021/08/04 00:28:15;;;;;;;1.30;1.00;;;;;;;;;;5121643;27;20043;-77
2021/08/04 00:30:41;;;;;;;3.30;1.08;;;;;;;;;;5131973;27;20022;-77
2021/08/04 00:33:06;;;;;;;3.30;1.00;;;;;;;;;;5132034;27;20102;-78
2021/08/04 00:35:32;;;;;;;3.15;1.00;;;;;;;;;;5124710;27;20020;-78
2021/08/04 00:37:57;;;;;;;1.90;0.88;;;;;;;;;;5115414;28;20019;-77
2021/08/04 00:40:23;;;;;;;4.32;1.10;;;;;;;;;;5112174;28;20026;-77
2021/08/04 00:42:49;;;;;;;1.48;1.02;;;;;;;;;;5112237;28;20031;-77
2021/08/04 00:45:14;;;;;;;3.13;1.00;;;;;;;;;;5111273;28;20028;-77
2021/08/04 00:47:41;;;;;;;1.40;1.10;;;;;;;;;;5126082;27;20116;-77
2021/08/04 00:50:07;;;;;;;2.58;0.90;;;;;;;;;;5132463;27;20390;-77
2021/08/04 00:52:33;;;;;;;2.35;1.00;;;;;;;;;;5115691;28;20023;-77
2021/08/04 00:54:59;;;;;;;0.95;0.73;;;;;;;;;;5128339;27;20110;-78
2021/08/04 00:57:24;;;;;;;6.15;2.35;;;;;;;;;;5134173;27;20486;-77
2021/08/04 00:59:50;;;;;;;1.77;0.93;;;;;;;;;;5135085;27;20023;-77
2021/08/04 01:02:38;;;;;;;1.17;1.00;;;;;;;;;;5136127;27;20023;-77
2021/08/04 01:05:14;;;;;;;4.57;1.20;;;;;;;;;;5134941;27;20015;-77
2021/08/04 01:07:55;;;;;;;2.05;0.80;;;;;;;;;;5131884;27;20467;-77
2021/08/04 01:10:29;;;;;;;2.28;1.00;;;;;;;;;;5118992;27;20087;-77
2021/08/04 01:13:21;;;;;;;1.38;0.90;;;;;;;;;;5123479;27;20476;-77
2021/08/04 01:15:53;;;;;;;1.58;0.95;;;;;;;;;;5114736;28;20034;-77
2021/08/04 01:18:26;;;;;;;2.15;1.85;;;;;;;;;;5115911;27;20482;-77
2021/08/04 01:20:53;;;;;;;2.08;0.90;;;;;;;;;;5115706;27;20073;-77
2021/08/04 01:23:34;;;;;;;2.25;0.70;;;;;;;;;;5114833;28;20035;-77
2021/08/04 01:26:06;;;;;;;0.32;0.25;;;;;;;;;;5114509;28;20023;-77
2021/08/04 01:28:39;;;;;;;1.02;0.52;;;;;;;;;;5123907;27;20437;-77
2021/08/04 01:31:08;;;;;;;0.55;0.40;;;;;;;;;;5114596;28;20024;-77
2021/08/04 01:33:37;;;;;;;3.63;0.45;;;;;;;;;;5114737;28;20032;-77
2021/08/04 01:36:04;;;;;;;0.45;0.40;;;;;;;;;;5115679;27;20023;-77
2021/08/04 01:38:31;;;;;;;0.32;0.30;;;;;;;;;;5113562;27;20039;-77
2021/08/04 01:40:58;;;;;;;1.08;0.50;;;;;;;;;;5114422;28;20540;-77
2021/08/04 01:43:25;;;;;;;1.45;0.45;;;;;;;;;;5114485;28;20143;-77
2021/08/04 01:45:54;;;;;;;0.55;0.52;;;;;;;;;;5130756;27;20072;-78
2021/08/04 01:48:20;;;;;;;1.40;0.77;;;;;;;;;;5121740;27;20106;-78
2021/08/04 01:50:47;;;;;;;0.57;0.45;;;;;;;;;;5131121;27;20530;-78
2021/08/04 01:53:13;;;;;;;0.82;0.57;;;;;;;;;;5133062;27;20101;-78
2021/08/04 01:55:38;;;;;;;0.77;0.65;;;;;;;;;;5115358;27;20114;-77
2021/08/04 01:58:04;;;;;;;2.78;0.30;;;;;;;;;;5115211;27;20482;-78
2021/08/04 02:00:29;;;;;;;0.40;0.40;;;;;;;;;;5113475;28;20026;-78
2021/08/04 02:02:55;;;;;;;10.15;1.13;;;;;;;;;;5120075;27;20497;-77
2021/08/04 02:05:20;;;;;;;0.82;0.50;;;;;;;;;;5122043;27;20019;-78
2021/08/04 02:08:07;;;;;;;2.95;0.60;;;;;;;;;;5117516;27;20487;-78
2021/08/04 02:10:41;;;;;;;1.15;0.77;;;;;;;;;;5131457;27;20034;-77
2021/08/04 02:13:51;;;;;;;8.93;2.50;;;;;;;;;;5124185;27;20035;-78
2021/08/04 02:16:28;;;;;;;0.40;0.30;;;;;;;;;;5101131;27;20388;-78
2021/08/04 02:19:19;;;;;;;0.50;0.30;;;;;;;;;;5113473;28;20050;-77
2021/08/04 02:21:57;;;;;;;0.82;0.57;;;;;;;;;;5119002;27;20382;-77
2021/08/04 02:24:24;;;;;;;0.73;0.50;;;;;;;;;;5123880;27;20023;-77
2021/08/04 02:26:53;;;;;;;2.22;0.28;;;;;;;;;;5114530;27;20027;-78
2021/08/04 02:29:22;;;;;;;0.20;0.20;;;;;;;;;;5113463;28;20559;-77
2021/08/04 02:31:47;;;;;;;0.88;0.40;;;;;;;;;;5113769;28;20116;-77
2021/08/04 02:34:15;;;;;;;1.17;0.47;;;;;;;;;;5113250;28;20491;-77
2021/08/04 02:36:41;;;;;;;0.40;0.40;;;;;;;;;;5114840;27;20470;-77
2021/08/04 02:39:07;;;;;;;4.53;0.35;;;;;;;;;;5131394;27;20110;-77
2021/08/04 02:41:33;;;;;;;0.90;0.45;;;;;;;;;;5132851;27;20091;-78
2021/08/04 02:44:02;;;;;;;0.40;0.30;;;;;;;;;;5133451;27;20505;-77
2021/08/04 02:46:29;;;;;;;0.47;0.35;;;;;;;;;;5128351;27;20467;-77
2021/08/04 02:48:56;;;;;;;1.05;0.50;;;;;;;;;;5113004;28;20026;-78
2021/08/04 02:51:22;;;;;;;1.80;0.93;;;;;;;;;;5113490;27;20321;-78
2021/08/04 02:53:56;;;;;;;1.40;0.47;;;;;;;;;;5116716;27;20015;-78
2021/08/04 02:56:22;;;;;;;3.17;0.60;;;;;;;;;;5131818;27;20024;-77
2021/08/04 02:58:48;;;;;;;0.73;0.30;;;;;;;;;;5133372;27;20030;-77
2021/08/04 03:01:13;;;;;;;1.98;0.40;;;;;;;;;;5133471;27;20023;-77
2021/08/04 03:03:39;;;;;;;0.90;0.52;;;;;;;;;;5133273;27;20083;-78
2021/08/04 03:06:04;;;;;;;0.90;0.57;;;;;;;;;;5131146;27;20027;-78
2021/08/04 03:08:30;;;;;;;0.88;0.57;;;;;;;;;;5129080;27;20419;-77
2021/08/04 03:10:55;;;;;;;0.57;0.55;;;;;;;;;;5111605;28;20015;-78
2021/08/04 03:13:21;;;;;;;0.57;0.40;;;;;;;;;;5125471;27;20076;-78
2021/08/04 03:15:46;;;;;;;1.02;0.40;;;;;;;;;;5132755;27;20023;-78
2021/08/04 03:18:12;;;;;;;0.95;0.50;;;;;;;;;;5115389;27;20034;-77
2021/08/04 03:20:37;;;;;;;1.35;0.60;;;;;;;;;;5128875;27;20023;-77
2021/08/04 03:23:03;;;;;;;1.48;0.40;;;;;;;;;;5129247;27;20046;-77
2021/08/04 03:25:28;;;;;;;1.10;0.47;;;;;;;;;;5130857;27;20386;-78
2021/08/04 03:27:54;;;;;;;0.68;0.57;;;;;;;;;;5131058;27;20111;-78
2021/08/04 03:30:19;;;;;;;0.93;0.50;;;;;;;;;;5131138;27;20034;-78
2021/08/04 03:32:45;;;;;;;0.82;0.60;;;;;;;;;;5132438;27;20111;-78
2021/08/04 03:35:11;;;;;;;0.43;0.43;;;;;;;;;;5132821;27;20045;-77
2021/08/04 03:37:36;;;;;;;3.42;1.08;;;;;;;;;;5113530;27;20042;-78
2021/08/04 03:40:03;;;;;;;0.77;0.50;;;;;;;;;;5130734;27;20084;-77
2021/08/04 03:42:28;;;;;;;0.52;0.50;;;;;;;;;;5122921;27;20028;-77
2021/08/04 03:44:54;;;;;;;0.50;0.50;;;;;;;;;;5111655;28;20023;-77
2021/08/04 03:47:19;;;;;;;3.45;0.98;;;;;;;;;;5116977;27;20048;-77
2021/08/04 03:49:45;;;;;;;1.77;0.85;;;;;;;;;;5111875;28;20081;-78
2021/08/04 03:52:11;;;;;;;1.38;0.90;;;;;;;;;;5111917;28;20050;-77
2021/08/04 03:54:36;;;;;;;1.42;0.90;;;;;;;;;;5121437;27;20031;-78
2021/08/04 03:57:03;;;;;;;1.55;0.90;;;;;;;;;;5113979;27;20027;-77
2021/08/04 03:59:28;;;;;;;2.95;0.80;;;;;;;;;;5111679;28;20026;-78
2021/08/04 04:01:53;;;;;;;1.25;1.05;;;;;;;;;;5116250;27;20378;-78
2021/08/04 04:04:19;;;;;;;0.93;0.80;;;;;;;;;;5130541;27;20023;-77
2021/08/04 04:06:44;;;;;;;1.45;0.80;;;;;;;;;;5130277;27;20020;-78
2021/08/04 04:09:10;;;;;;;2.72;1.27;;;;;;;;;;5128019;27;20038;-77
2021/08/04 04:11:36;;;;;;;5.97;1.63;;;;;;;;;;5131207;27;20079;-78
2021/08/04 04:14:02;;;;;;;1.42;0.90;;;;;;;;;;5127497;27;20385;-78
2021/08/04 04:16:27;;;;;;;1.75;1.10;;;;;;;;;;5130407;27;20031;-78
2021/08/04 04:18:53;;;;;;;1.77;1.00;;;;;;;;;;5131422;27;20025;-78
2021/08/04 04:21:18;;;;;;;1.75;0.93;;;;;;;;;;5130512;27;20026;-78
2021/08/04 04:23:43;;;;;;;3.47;0.80;;;;;;;;;;5128361;27;20030;-77
2021/08/04 04:26:09;;;;;;;8.25;1.35;;;;;;;;;;5131758;27;20023;-78
2021/08/04 04:28:35;;;;;;;1.90;1.08;;;;;;;;;;5130546;27;20490;-78
2021/08/04 04:31:00;;;;;;;0.95;0.70;;;;;;;;;;5129835;27;20436;-77
2021/08/04 04:33:26;;;;;;;3.45;0.65;;;;;;;;;;5131816;27;20027;-77
2021/08/04 04:35:51;;;;;;;0.85;0.68;;;;;;;;;;5131653;27;20023;-77
2021/08/04 04:38:17;;;;;;;2.60;1.15;;;;;;;;;;5124427;28;20026;-78
2021/08/04 04:40:42;;;;;;;2.10;0.73;;;;;;;;;;5111939;28;20356;-77
2021/08/04 04:43:08;;;;;;;2.13;0.55;;;;;;;;;;5110993;28;20467;-77
2021/08/04 04:45:33;;;;;;;1.30;0.60;;;;;;;;;;5111084;28;20076;-77
2021/08/04 04:47:59;;;;;;;0.98;0.80;;;;;;;;;;5121730;28;20031;-77
2021/08/04 04:50:24;;;;;;;2.15;1.00;;;;;;;;;;5111033;28;20106;-77
2021/08/04 04:52:49;;;;;;;1.67;0.88;;;;;;;;;;5113178;28;20123;-78
2021/08/04 04:55:15;;;;;;;4.45;1.05;;;;;;;;;;5125518;28;20059;-77
2021/08/04 04:57:40;;;;;;;1.90;0.93;;;;;;;;;;5129802;28;20502;-78
2021/08/04 05:00:07;;;;;;;2.00;1.02;;;;;;;;;;5131298;28;20023;-78
2021/08/04 05:02:35;;;;;;;1.83;1.23;;;;;;;;;;5131477;28;20071;-77
2021/08/04 05:05:01;;;;;;;1.10;0.82;;;;;;;;;;5131186;28;20382;-77
2021/08/04 05:07:26;;;;;;;2.47;1.05;;;;;;;;;;5130041;28;20019;-77
2021/08/04 05:09:51;;;;;;;1.20;0.70;;;;;;;;;;5127517;28;20034;-77
2021/08/04 05:12:17;;;;;;;1.58;0.90;;;;;;;;;;5128212;28;20144;-78
2021/08/04 05:14:42;;;;;;;2.08;0.88;;;;;;;;;;5124129;28;20035;-78
2021/08/04 05:17:13;;;;;;;1.48;0.80;;;;;;;;;;5129121;28;20079;-78
2021/08/04 05:19:39;;;;;;;0.77;0.50;;;;;;;;;;5130790;28;20027;-78
2021/08/04 05:22:04;;;;;;;5.63;0.80;;;;;;;;;;5113189;28;20475;-78
2021/08/04 05:24:30;;;;;;;1.55;1.00;;;;;;;;;;5111880;28;20059;-78
2021/08/04 05:26:55;;;;;;;1.75;1.13;;;;;;;;;;5111742;28;20019;-78
2021/08/04 05:29:20;;;;;;;1.55;1.20;;;;;;;;;;5110843;28;20106;-77
2021/08/04 05:31:46;;;;;;;2.17;0.95;;;;;;;;;;5112075;28;20035;-77
2021/08/04 05:34:11;;;;;;;1.08;0.85;;;;;;;;;;5110656;28;20738;-78
2021/08/04 05:36:37;;;;;;;0.63;0.40;;;;;;;;;;5114734;27;20473;-78
2021/08/04 05:39:02;;;;;;;1.40;0.80;;;;;;;;;;5119586;27;20428;-78
2021/08/04 05:41:28;;;;;;;2.00;0.90;;;;;;;;;;5135200;27;20019;-78
2021/08/04 05:43:53;;;;;;;5.30;0.98;;;;;;;;;;5134276;27;20493;-77
2021/08/04 05:46:19;;;;;;;2.22;0.70;;;;;;;;;;5128075;27;20050;-78
2021/08/04 05:48:44;;;;;;;1.25;0.65;;;;;;;;;;5115101;27;20062;-78
2021/08/04 05:51:09;;;;;;;3.00;0.98;;;;;;;;;;5113827;28;20031;-78
2021/08/04 05:53:35;;;;;;;1.70;0.70;;;;;;;;;;5115791;27;20059;-78
2021/08/04 05:56:00;;;;;;;0.70;0.60;;;;;;;;;;5117508;27;20028;-78
2021/08/04 05:58:26;;;;;;;1.67;0.47;;;;;;;;;;5115227;27;20403;-78
2021/08/04 06:00:51;;;;;;;1.77;0.93;;;;;;;;;;5114912;27;20020;-78
2021/08/04 06:03:17;;;;;;;0.93;0.73;;;;;;;;;;5113865;28;20023;-78
2021/08/04 06:05:42;;;;;;;2.03;0.68;;;;;;;;;;5114135;28;20030;-78
2021/08/04 06:08:10;;;;;;;0.63;0.45;;;;;;;;;;5126044;27;20034;-78
2021/08/04 06:10:35;;;;;;;0.20;0.20;;;;;;;;;;5129600;27;20027;-78
2021/08/04 06:13:00;;;;;;;0.30;0.30;;;;;;;;;;5124791;27;20024;-78
2021/08/04 06:15:26;;;;;;;1.17;0.55;;;;;;;;;;5113635;28;20493;-78
2021/08/04 06:17:51;;;;;;;0.88;0.68;;;;;;;;;;5114555;27;20448;-79
2021/08/04 06:20:17;;;;;;;0.55;0.55;;;;;;;;;;5113648;28;20062;-78
2021/08/04 06:22:42;;;;;;;1.52;1.00;;;;;;;;;;5114766;27;20103;-77
2021/08/04 06:25:08;;;;;;;2.92;0.55;;;;;;;;;;5119664;27;20024;-78
2021/08/04 06:27:34;;;;;;;4.20;1.10;;;;;;;;;;5114629;27;20122;-78
2021/08/04 06:29:59;;;;;;;3.10;1.10;;;;;;;;;;5113301;28;20111;-78
2021/08/04 06:32:25;;;;;;;116.70;47.67;;;;;;;;;;5113269;28;20047;-78
2021/08/04 06:34:50;;;;;;;1.58;0.93;;;;;;;;;;5113360;28;20020;-78
2021/08/04 06:37:15;;;;;;;0.90;0.60;;;;;;;;;;5115373;27;20530;-78
2021/08/04 06:39:41;;;;;;;1.75;0.77;;;;;;;;;;5121952;27;20027;-79
2021/08/04 06:42:06;;;;;;;2.38;0.77;;;;;;;;;;5133559;27;20080;-78
2021/08/04 06:44:32;;;;;;;1.40;0.70;;;;;;;;;;5133616;27;20023;-78
2021/08/04 06:46:58;;;;;;;1.85;0.85;;;;;;;;;;5124464;27;20043;-78
2021/08/04 06:49:24;;;;;;;1.55;0.88;;;;;;;;;;5131904;27;20070;-79
2021/08/04 06:51:50;;;;;;;2.08;0.77;;;;;;;;;;5124730;27;20055;-77
2021/08/04 06:54:15;;;;;;;1.55;0.77;;;;;;;;;;5113802;27;20030;-78
2021/08/04 06:56:40;;;;;;;1.10;0.77;;;;;;;;;;5120202;27;20505;-77
2021/08/04 06:59:07;;;;;;;2.10;0.65;;;;;;;;;;5131168;27;20033;-76
2021/08/04 07:01:32;;;;;;;1.23;0.55;;;;;;;;;;5133402;27;20031;-77
2021/08/04 07:03:58;;;;;;;1.35;0.73;;;;;;;;;;5133150;27;20019;-77
2021/08/04 07:06:23;;;;;;;0.80;0.50;;;;;;;;;;5133100;27;20027;-78
2021/08/04 07:08:48;;;;;;;0.90;0.60;;;;;;;;;;5129845;27;20107;-78
2021/08/04 07:11:14;;;;;;;0.93;0.60;;;;;;;;;;5131406;27;20088;-79
2021/08/04 07:13:40;;;;;;;1.38;0.80;;;;;;;;;;5122489;27;20031;-78
2021/08/04 07:16:06;;;;;;;1.05;0.63;;;;;;;;;;5120956;27;20506;-78
2021/08/04 07:18:31;;;;;;;1.85;0.75;;;;;;;;;;5124445;27;20031;-78
2021/08/04 07:20:57;;;;;;;1.52;0.70;;;;;;;;;;5113866;27;20042;-78
2021/08/04 07:23:23;;;;;;;0.98;0.60;;;;;;;;;;5123477;27;20023;-78
2021/08/04 07:25:48;;;;;;;0.90;0.60;;;;;;;;;;5121959;27;20155;-78
2021/08/04 07:28:14;;;;;;;0.88;0.50;;;;;;;;;;5117037;27;20101;-78
2021/08/04 07:30:40;;;;;;;1.65;0.70;;;;;;;;;;5113422;27;20084;-78
2021/08/04 07:33:05;;;;;;;3.05;0.90;;;;;;;;;;5110316;28;20026;-78
2021/08/04 07:35:31;;;;;;;3.55;0.80;;;;;;;;;;5119954;27;20418;-80
2021/08/04 07:37:56;;;;;;;3.65;1.20;;;;;;;;;;5120940;27;20019;-79
2021/08/04 07:40:22;;;;;;;3.15;1.05;;;;;;;;;;5119724;27;20098;-78
2021/08/04 07:42:49;;;;;;;2.55;0.80;;;;;;;;;;5130818;27;20526;-81
2021/08/04 07:45:17;;;;;;;2.08;0.82;;;;;;;;;;5115771;27;20057;-80
2021/08/04 07:47:44;;;;;;;2.78;1.23;;;;;;;;;;5129967;27;20039;-77
2021/08/04 07:50:10;;;;;;;2.80;1.10;;;;;;;;;;5121568;27;20110;-78
2021/08/04 07:52:36;;;;;;;1.77;1.00;;;;;;;;;;5121602;27;20055;-76
2021/08/04 07:55:06;;;;;;;2.17;0.95;;;;;;;;;;5112957;28;20044;-77
2021/08/04 07:57:32;;;;;;;1.98;0.93;;;;;;;;;;5114312;28;20032;-77
2021/08/04 07:59:57;;;;;;;1.92;0.88;;;;;;;;;;5113083;27;20038;-79
2021/08/04 08:02:24;;;;;;;1.02;0.73;;;;;;;;;;5114967;27;20352;-78
2021/08/04 08:04:50;;;;;;;2.47;1.55;;;;;;;;;;5129910;27;20047;-75
2021/08/04 08:07:15;;;;;;;1.48;0.80;;;;;;;;;;5127639;27;20059;-77
2021/08/04 08:09:41;;;;;;;1.77;0.95;;;;;;;;;;5113252;27;20474;-75
2021/08/04 08:12:07;;;;;;;3.00;1.35;;;;;;;;;;5114020;27;20118;-77
2021/08/04 08:14:33;;;;;;;1.30;0.85;;;;;;;;;;5122794;27;20472;-77
2021/08/04 08:16:59;;;;;;;1.42;0.80;;;;;;;;;;5121746;27;20028;-75
2021/08/04 08:19:25;;;;;;;2.55;0.85;;;;;;;;;;5123319;27;20023;-75
2021/08/04 08:21:51;;;;;;;1.02;0.65;;;;;;;;;;5129119;27;20083;-74
2021/08/04 08:24:17;;;;;;;1.48;0.70;;;;;;;;;;5131058;27;20023;-74
2021/08/04 08:26:43;;;;;;;0.93;0.60;;;;;;;;;;5130596;27;20027;-74
2021/08/04 08:29:09;;;;;;;0.47;0.47;;;;;;;;;;5130869;27;20034;-74
2021/08/04 08:31:36;;;;;;;2.70;1.00;;;;;;;;;;5130657;27;20030;-74
2021/08/04 08:34:03;;;;;;;0.82;0.60;;;;;;;;;;5130794;27;20061;-74
2021/08/04 08:36:31;;;;;;;1.45;0.60;;;;;;;;;;5130747;27;20019;-74
2021/08/04 08:38:57;;;;;;;2.03;0.70;;;;;;;;;;5131922;27;20034;-74
2021/08/04 08:41:24;;;;;;;0.50;0.30;;;;;;;;;;5131889;28;20015;-75
2021/08/04 08:43:49;;;;;;;1.65;0.28;;;;;;;;;;5132256;28;20030;-74
2021/08/04 08:46:17;;;;;;;0.15;0.05;;;;;;;;;;5127450;28;20092;-74
2021/08/04 08:48:47;;;;;;;1.05;0.20;;;;;;;;;;5111346;28;20343;-75
2021/08/04 08:51:17;;;;;;;3.50;0.55;;;;;;;;;;5111333;28;20032;-75
2021/08/04 08:53:43;;;;;;;0.20;0.20;;;;;;;;;;5111467;28;20383;-75
2021/08/04 08:56:08;;;;;;;0.20;0.20;;;;;;;;;;5111500;28;20023;-75
2021/08/04 08:58:34;;;;;;;0.43;0.20;;;;;;;;;;5111512;28;20024;-75
2021/08/04 09:00:59;;;;;;;0.73;0.68;;;;;;;;;;5111486;28;20106;-75
2021/08/04 09:03:25;;;;;;;1.58;1.10;;;;;;;;;;5111280;28;20118;-75
2021/08/04 09:05:53;;;;;;;4.60;1.15;;;;;;;;;;5111467;28;20096;-75
2021/08/04 09:08:30;;;;;;;1.40;0.90;;;;;;;;;;5111233;28;20071;-75
2021/08/04 09:10:57;;;;;;;2.05;0.90;;;;;;;;;;5114366;28;20023;-75
2021/08/04 09:13:33;;;;;;;1.20;0.70;;;;;;;;;;5115674;28;20050;-75
2021/08/04 09:16:10;;;;;;;1.40;0.70;;;;;;;;;;5115376;28;20023;-75
2021/08/04 09:18:47;;;;;;;1.13;0.65;;;;;;;;;;5115344;28;20558;-75
2021/08/04 09:21:14;;;;;;;1.00;0.52;;;;;;;;;;5115517;28;20089;-76
2021/08/04 09:23:42;;;;;;;0.70;0.60;;;;;;;;;;5115308;28;20020;-76
2021/08/04 09:26:11;;;;;;;5.18;1.92;;;;;;;;;;5115126;28;20051;-75
2021/08/04 09:28:59;;;;;;;1.58;0.55;;;;;;;;;;5115312;28;20027;-75
2021/08/04 09:31:39;;;;;;;1.08;0.63;;;;;;;;;;5114851;28;20101;-75
2021/08/04 09:34:34;;;;;;;2.70;0.82;;;;;;;;;;5113470;28;20031;-76
2021/08/04 09:37:03;;;;;;;1.52;0.57;;;;;;;;;;5114878;28;20036;-76
2021/08/04 09:39:28;;;;;;;1.17;0.63;;;;;;;;;;5115154;28;20027;-76
2021/08/04 09:41:54;;;;;;;1.58;0.68;;;;;;;;;;5114836;28;20023;-75
2021/08/04 09:44:19;;;;;;;0.70;0.70;;;;;;;;;;5114651;28;20035;-74
2021/08/04 09:46:46;;;;;;;0.93;0.80;;;;;;;;;;5123300;27;20059;-75
2021/08/04 09:49:17;;;;;;;2.65;0.90;;;;;;;;;;5135439;27;20471;-76
2021/08/04 09:51:44;;;;;;;1.48;0.65;;;;;;;;;;5135093;27;20471;-75
2021/08/04 09:54:15;;;;;;;1.20;0.82;;;;;;;;;;5135053;27;20031;-75
2021/08/04 09:56:57;;;;;;;1.48;0.73;;;;;;;;;;5135025;27;20031;-75
2021/08/04 09:59:24;;;;;;;0.80;0.80;;;;;;;;;;5134916;27;20506;-75
2021/08/04 10:01:50;;;;;;;0.93;0.70;;;;;;;;;;5135041;27;20027;-75
2021/08/04 10:04:15;;;;;;;0.85;0.73;;;;;;;;;;5134812;27;20034;-74
2021/08/04 10:06:43;;;;;;;2.03;0.80;;;;;;;;;;5134992;27;20088;-75
2021/08/04 10:09:13;;;;;;;2.10;0.80;;;;;;;;;;5134897;27;20065;-75
2021/08/04 10:11:49;;;;;;;0.90;0.60;;;;;;;;;;5134743;27;20023;-75
2021/08/04 10:14:21;;;;;;;1.33;0.70;;;;;;;;;;5134477;27;20039;-74
2021/08/04 10:16:48;;;;;;;1.38;0.82;;;;;;;;;;5134626;27;20026;-74
2021/08/04 10:19:14;;;;;;;1.75;0.70;;;;;;;;;;5134813;27;20054;-76
2021/08/04 10:21:44;;;;;;;1.45;0.70;;;;;;;;;;5134197;27;20071;-74
2021/08/04 10:24:12;;;;;;;0.60;0.55;;;;;;;;;;5134352;27;20019;-75
2021/08/04 10:26:39;;;;;;;1.25;0.85;;;;;;;;;;5134535;27;20121;-75
2021/08/04 10:29:08;;;;;;;0.93;0.60;;;;;;;;;;5134280;27;20030;-74
2021/08/04 10:31:35;;;;;;;1.33;0.50;;;;;;;;;;5134404;27;20023;-75
2021/08/04 10:34:02;;;;;;;1.67;0.55;;;;;;;;;;5134357;27;20033;-76
2021/08/04 10:36:33;;;;;;;1.02;0.60;;;;;;;;;;5134321;27;20026;-75
2021/08/04 10:39:03;;;;;;;0.45;0.30;;;;;;;;;;5134197;27;20051;-75
2021/08/04 10:41:29;;;;;;;1.00;0.60;;;;;;;;;;5134169;27;20026;-76
2021/08/04 10:43:55;;;;;;;1.67;0.50;;;;;;;;;;5134494;27;20494;-75
2021/08/04 10:46:29;;;;;;;1.27;0.45;;;;;;;;;;5134041;27;20094;-76
2021/08/04 10:49:05;;;;;;;1.23;0.50;;;;;;;;;;5134245;27;20031;-76
2021/08/04 10:52:03;;;;;;;0.63;0.40;;;;;;;;;;5133909;27;20101;-75
2021/08/04 10:54:30;;;;;;;1.48;0.70;;;;;;;;;;5133523;27;20374;-76
2021/08/04 10:56:56;;;;;;;0.93;0.52;;;;;;;;;;5133782;27;20019;-76
2021/08/04 10:59:26;;;;;;;0.43;0.40;;;;;;;;;;5133786;27;20027;-76
2021/08/04 11:02:04;;;;;;;0.98;0.65;;;;;;;;;;5133945;27;20023;-76
2021/08/04 11:04:29;;;;;;;0.82;0.50;;;;;;;;;;5133536;27;20107;-75
2021/08/04 11:07:13;;;;;;;0.88;0.63;;;;;;;;;;5133709;27;20023;-75
2021/08/04 11:09:48;;;;;;;1.40;0.60;;;;;;;;;;5133794;27;20030;-75
2021/08/04 11:12:21;;;;;;;1.23;0.60;;;;;;;;;;5133267;27;20027;-76
2021/08/04 11:14:50;;;;;;;0.68;0.60;;;;;;;;;;5133593;27;20027;-75
2021/08/04 11:17:31;;;;;;;0.90;0.52;;;;;;;;;;5133424;27;20508;-75
2021/08/04 11:19:56;;;;;;;1.08;0.73;;;;;;;;;;5133388;27;20034;-75
2021/08/04 11:22:23;;;;;;;3.10;1.67;;;;;;;;;;5133258;27;20023;-73
2021/08/04 11:24:57;;;;;;;0.85;0.60;;;;;;;;;;5133327;27;20141;-73
2021/08/04 11:27:25;;;;;;;1.15;0.80;;;;;;;;;;5133083;27;20489;-73
2021/08/04 11:29:52;;;;;;;1.58;0.95;;;;;;;;;;5133262;27;20489;-73
2021/08/04 11:32:23;;;;;;;1.33;0.70;;;;;;;;;;5132348;27;20034;-73
2021/08/04 11:34:49;;;;;;;1.73;0.70;;;;;;;;;;5133222;27;20397;-73
2021/08/04 11:37:15;;;;;;;2.15;0.60;;;;;;;;;;5133071;27;20023;-73
2021/08/04 11:39:57;;;;;;;2.67;0.80;;;;;;;;;;5133076;27;20073;-73
2021/08/04 11:42:24;;;;;;;1.42;0.57;;;;;;;;;;5132774;27;20022;-73
2021/08/04 11:44:50;;;;;;;1.60;0.88;;;;;;;;;;5132959;27;20050;-73
2021/08/04 11:47:16;;;;;;;1.67;0.70;;;;;;;;;;5132150;27;20108;-73
2021/08/04 11:49:49;;;;;;;1.23;0.80;;;;;;;;;;5127066;27;20035;-73
2021/08/04 11:52:22;;;;;;;0.77;0.70;;;;;;;;;;5110472;28;20455;-72
2021/08/04 11:54:49;;;;;;;1.45;0.68;;;;;;;;;;5115365;27;20027;-72
2021/08/04 11:57:20;;;;;;;2.70;0.82;;;;;;;;;;5132880;27;20019;-72
2021/08/04 11:59:55;;;;;;;0.95;0.60;;;;;;;;;;5121278;27;20077;-72
2021/08/04 12:02:22;;;;;;;1.85;1.05;;;;;;;;;;5122895;27;20064;-74
2021/08/04 12:04:56;;;;;;;1.00;0.63;;;;;;;;;;5133474;27;20077;-74
2021/08/04 12:07:26;;;;;;;2.40;1.00;;;;;;;;;;5132392;27;20430;-75
2021/08/04 12:09:56;;;;;;;1.52;1.00;;;;;;;;;;5132535;27;20035;-74
2021/08/04 12:12:27;;;;;;;0.68;0.68;;;;;;;;;;5132393;27;20023;-74
2021/08/04 12:14:53;;;;;;;1.38;0.73;;;;;;;;;;5132504;27;20027;-75
2021/08/04 12:17:27;;;;;;;2.67;1.38;;;;;;;;;;5132418;27;20030;-73
2021/08/04 12:19:54;;;;;;;17.38;1.27;;;;;;;;;;5132457;27;20076;-72
2021/08/04 12:22:20;;;;;;;6.32;1.33;;;;;;;;;;5132282;27;20019;-74
2021/08/04 12:24:50;;;;;;;2.88;1.10;;;;;;;;;;5124196;27;20363;-75
2021/08/04 12:27:35;;;;;;;1.58;0.82;;;;;;;;;;5122540;27;20541;-76
2021/08/04 12:30:08;;;;;;;3.20;0.90;;;;;;;;;;5123052;27;20016;-75
2021/08/04 12:32:59;;;;;;;9.02;1.10;;;;;;;;;;5119398;27;20026;-73
2021/08/04 12:35:40;;;;;;;1.73;0.90;;;;;;;;;;5130092;27;20126;-74
2021/08/04 12:38:19;;;;;;;1.75;0.70;;;;;;;;;;5132679;27;20016;-75
2021/08/04 12:40:54;;;;;;;3.22;1.00;;;;;;;;;;5132452;28;20068;-78
2021/08/04 12:43:23;;;;;;;1.83;0.82;;;;;;;;;;5133009;27;20027;-74
2021/08/04 12:45:53;;;;;;;3.78;1.10;;;;;;;;;;5134026;27;20035;-75
2021/08/04 12:48:21;;;;;;;2.45;1.20;;;;;;;;;;5137505;27;20035;-75
2021/08/04 12:50:54;;;;;;;1.88;1.00;;;;;;;;;;5137765;27;20068;-76
2021/08/04 12:53:30;;;;;;;2.08;1.33;;;;;;;;;;5129985;27;20024;-79
2021/08/04 12:56:00;;;;;;;2.97;1.10;;;;;;;;;;5123162;27;20026;-77
2021/08/04 12:58:25;;;;;;;2.92;1.80;;;;;;;;;;5122740;27;20102;-77
2021/08/04 13:00:51;;;;;;;4.68;2.00;;;;;;;;;;5133810;27;20115;-75
2021/08/04 13:03:30;;;;;;;4.63;2.15;;;;;;;;;;5135060;27;20109;-76
2021/08/04 13:05:56;;;;;;;3.00;1.90;;;;;;;;;;5127742;27;20475;-77
2021/08/04 13:08:35;;;;;;;2.75;1.50;;;;;;;;;;5130928;27;20025;-76
2021/08/04 13:11:03;;;;;;;6.10;1.60;;;;;;;;;;5139495;27;20050;-79
2021/08/04 13:13:57;;;;;;;4.20;1.65;;;;;;;;;;5134154;27;20049;-76
2021/08/04 13:16:35;;;;;;;4.13;1.63;;;;;;;;;;5118887;27;20359;-79
2021/08/04 13:19:15;;;;;;;4.57;1.70;;;;;;;;;;5120115;27;20100;-72
2021/08/04 13:22:00;;;;;;;3.95;1.33;;;;;;;;;;5139991;27;20025;-74
2021/08/04 13:24:34;;;;;;;1.75;1.20;;;;;;;;;;5139546;27;20037;-74
2021/08/04 13:27:00;;;;;;;2.95;1.38;;;;;;;;;;5137782;27;20576;-72
2021/08/04 13:29:31;;;;;;;2.65;1.40;;;;;;;;;;5128373;27;20426;-72
2021/08/04 13:31:58;;;;;;;1.48;1.10;;;;;;;;;;5118268;27;20375;-70
2021/08/04 13:34:24;;;;;;;2.53;1.88;;;;;;;;;;5131317;27;20023;-74
2021/08/04 13:36:52;;;;;;;2.78;1.60;;;;;;;;;;5137512;27;20068;-72
2021/08/04 13:39:17;;;;;;;1.85;1.30;;;;;;;;;;5131447;27;20031;-73
2021/08/04 13:41:43;;;;;;;11.60;2.90;;;;;;;;;;5132186;27;20054;-74
2021/08/04 13:44:08;;;;;;;1.67;1.38;;;;;;;;;;5131746;27;20068;-74
2021/08/04 13:46:33;;;;;;;1.98;1.10;;;;;;;;;;5133497;27;20027;-75
2021/08/04 13:48:59;;;;;;;3.55;1.20;;;;;;;;;;5117409;28;20073;-74
2021/08/04 13:51:27;;;;;;;2.28;1.30;;;;;;;;;;5116758;27;20019;-75
2021/08/04 13:53:53;;;;;;;2.60;1.23;;;;;;;;;;5116796;27;20024;-75
2021/08/04 13:56:18;;;;;;;1.33;1.00;;;;;;;;;;5113020;27;20102;-74
2021/08/04 13:58:44;;;;;;;3.42;1.30;;;;;;;;;;5113869;28;20023;-75
2021/08/04 14:01:09;;;;;;;2.10;1.20;;;;;;;;;;5113784;28;20026;-75
2021/08/04 14:03:34;;;;;;;2.20;1.10;;;;;;;;;;5113556;28;20475;-76
2021/08/04 14:06:00;;;;;;;2.80;1.00;;;;;;;;;;5113659;28;20028;-73
2021/08/04 14:08:25;;;;;;;0.85;0.77;;;;;;;;;;5113164;28;20351;-74
2021/08/04 14:10:51;;;;;;;2.17;1.00;;;;;;;;;;5113322;28;20051;-72
2021/08/04 14:13:16;;;;;;;2.75;1.10;;;;;;;;;;5113267;27;20359;-74
2021/08/04 14:15:42;;;;;;;1.52;1.10;;;;;;;;;;5113196;28;20028;-75
2021/08/04 14:18:08;;;;;;;2.17;1.10;;;;;;;;;;5113614;28;20061;-74
2021/08/04 14:20:35;;;;;;;1.60;1.00;;;;;;;;;;5113817;28;20023;-73
2021/08/04 14:23:00;;;;;;;1.40;1.00;;;;;;;;;;5113848;28;20020;-73
2021/08/04 14:25:26;;;;;;;1.40;0.80;;;;;;;;;;5113830;28;20034;-75
2021/08/04 14:27:51;;;;;;;5.25;1.30;;;;;;;;;;5113892;28;21599;-72
2021/08/04 14:30:17;;;;;;;1.50;1.00;;;;;;;;;;5114066;28;20623;-73
2021/08/04 14:32:43;;;;;;;1.60;0.90;;;;;;;;;;5113547;28;20519;-74
2021/08/04 14:35:10;;;;;;;2.25;0.90;;;;;;;;;;5113633;28;20020;-72
2021/08/04 14:37:37;;;;;;;1.50;0.95;;;;;;;;;;5113253;27;20106;-73
2021/08/04 14:40:04;;;;;;;2.80;1.25;;;;;;;;;;5113970;28;20030;-73
2021/08/04 14:42:30;;;;;;;1.58;0.88;;;;;;;;;;5113311;28;20462;-75
2021/08/04 14:44:56;;;;;;;1.67;0.80;;;;;;;;;;5113988;28;20051;-75
2021/08/04 14:47:21;;;;;;;2.05;0.77;;;;;;;;;;5116989;27;20507;-71
2021/08/04 14:49:47;;;;;;;2.10;0.80;;;;;;;;;;5125248;27;20031;-70